createdAt,value
2022-08-18T00:00:23.851Z,7.75
2022-08-18T00:03:00.778Z,7.60
2022-08-18T00:05:30.874Z,7.50
2022-08-18T00:08:03.453Z,7.53
2022-08-18T00:10:35.994Z,7.08
2022-08-18T00:13:08.035Z,7.25
2022-08-18T00:15:41.718Z,7.37
2022-08-18T00:18:13.995Z,7.00
2022-08-18T00:20:46.449Z,6.53
2022-08-18T00:23:18.647Z,6.30
2022-08-18T00:25:50.747Z,12.07
2022-08-18T00:28:23.955Z,7.70
2022-08-18T00:30:56.109Z,6.67
2022-08-18T00:33:28.205Z,6.55
2022-08-18T00:36:00.401Z,7.00
2022-08-18T00:38:32.811Z,5.65
2022-08-18T00:41:05.678Z,5.80
2022-08-18T00:43:46.590Z,5.95
2022-08-18T00:46:24.533Z,6.08
2022-08-18T00:48:57.160Z,6.12
2022-08-18T00:51:33.136Z,6.95
2022-08-18T00:54:09.086Z,5.25
2022-08-18T00:56:44.028Z,5.55
2022-08-18T00:59:31.455Z,5.83
2022-08-18T01:02:06.395Z,5.67
2022-08-18T01:04:47.286Z,5.85
2022-08-18T01:07:25.186Z,5.22
2022-08-18T01:10:00.193Z,5.70
2022-08-18T01:12:45.151Z,6.30
2022-08-18T01:15:08.210Z,6.17
2022-08-18T01:18:00.553Z,6.25
2022-08-18T01:20:59.211Z,5.00
2022-08-18T01:23:32.439Z,5.15
2022-08-18T01:26:04.721Z,5.80
2022-08-18T01:28:42.077Z,4.87
2022-08-18T01:31:16.718Z,5.25
2022-08-18T01:33:48.744Z,6.30
2022-08-18T01:36:22.973Z,5.80
2022-08-18T01:38:55.461Z,5.40
2022-08-18T01:41:30.778Z,5.33
2022-08-18T01:44:03.077Z,5.53
2022-08-18T01:46:36.852Z,5.08
2022-08-18T01:49:10.715Z,4.85
2022-08-18T01:51:43.347Z,5.30
2022-08-18T01:54:16.763Z,5.72
2022-08-18T01:56:49.517Z,6.42
2022-08-18T01:59:21.966Z,5.40
2022-08-18T02:01:55.860Z,5.80
2022-08-18T02:04:37.320Z,5.15
2022-08-18T02:07:09.106Z,5.70
2022-08-18T02:09:43.213Z,5.37
2022-08-18T02:12:16.931Z,6.28
2022-08-18T02:14:50.867Z,5.50
2022-08-18T02:17:24.116Z,5.20
2022-08-18T02:19:56.817Z,5.25
2022-08-18T02:22:29.022Z,6.28
2022-08-18T02:25:01.441Z,5.10
2022-08-18T02:27:33.744Z,5.72
2022-08-18T02:30:08.922Z,5.40
2022-08-18T02:32:41.312Z,5.75
2022-08-18T02:35:13.931Z,5.90
2022-08-18T02:37:49.364Z,6.00
2022-08-18T02:40:21.808Z,5.17
2022-08-18T02:42:54.346Z,6.62
2022-08-18T02:45:27.214Z,6.72
2022-08-18T02:47:59.232Z,6.15
2022-08-18T02:50:31.643Z,5.62
2022-08-18T02:53:04.495Z,6.60
2022-08-18T02:55:36.752Z,6.20
2022-08-18T02:58:09.491Z,6.70
2022-08-18T03:00:43.049Z,6.55
2022-08-18T03:03:15.376Z,6.85
2022-08-18T03:05:47.840Z,7.37
2022-08-18T03:08:19.860Z,7.22
2022-08-18T03:10:55.484Z,7.58
2022-08-18T03:13:27.510Z,8.45
2022-08-18T03:16:00.044Z,9.58
2022-08-18T03:18:33.578Z,10.25
2022-08-18T03:21:18.355Z,10.82
2022-08-18T03:24:00.282Z,10.75
2022-08-18T03:26:26.209Z,12.53
2022-08-18T03:29:00.256Z,13.48
2022-08-18T03:31:32.609Z,13.93
2022-08-18T03:34:06.232Z,15.58
2022-08-18T03:36:38.649Z,14.18
2022-08-18T03:39:13.499Z,13.83
2022-08-18T03:41:58.451Z,13.80
2022-08-18T03:44:20.588Z,13.75
2022-08-18T03:46:52.864Z,12.88
2022-08-18T03:49:26.698Z,12.60
2022-08-18T03:52:03.798Z,13.40
2022-08-18T03:54:37.952Z,13.08
2022-08-18T03:57:11.752Z,12.93
2022-08-18T03:59:44.082Z,13.48
2022-08-18T04:02:18.348Z,13.22
2022-08-18T04:04:51.331Z,13.15
2022-08-18T04:07:24.254Z,12.98
2022-08-18T04:09:56.419Z,12.18
2022-08-18T04:12:30.838Z,13.03
2022-08-18T04:15:03.622Z,13.90
2022-08-18T04:17:36.009Z,14.40
2022-08-18T04:20:11.884Z,15.10
2022-08-18T04:25:17.154Z,20.70
2022-08-18T04:27:49.399Z,23.00
2022-08-18T04:30:21.638Z,26.10
2022-08-18T04:32:52.656Z,24.92
2022-08-18T04:35:24.346Z,22.87
2022-08-18T04:37:56.650Z,25.20
2022-08-18T04:40:29.564Z,26.77
2022-08-18T04:43:05.136Z,28.55
2022-08-18T04:45:38.885Z,28.73
2022-08-18T04:48:11.009Z,29.70
2022-08-18T04:50:45.247Z,32.73
2022-08-18T04:53:35.319Z,38.40
2022-08-18T04:56:08.501Z,42.67
2022-08-18T04:58:40.705Z,44.38
2022-08-18T05:01:13.657Z,47.23
2022-08-18T05:03:50.064Z,50.15
2022-08-18T05:06:23.606Z,53.08
2022-08-18T05:08:59.521Z,54.98
2022-08-18T05:11:34.926Z,54.67
2022-08-18T05:14:09.658Z,55.70
2022-08-18T05:16:48.147Z,60.35
2022-08-18T05:19:16.633Z,58.60
2022-08-18T05:21:52.406Z,60.33
2022-08-18T05:24:26.777Z,58.78
2022-08-18T05:26:59.554Z,55.43
2022-08-18T05:29:45.771Z,54.80
2022-08-18T05:32:37.373Z,53.48
2022-08-18T05:34:50.363Z,54.25
2022-08-18T05:37:35.784Z,56.18
2022-08-18T05:40:11.558Z,60.00
2022-08-18T05:42:45.481Z,60.90
2022-08-18T05:45:19.514Z,56.25
2022-08-18T05:47:53.233Z,55.40
2022-08-18T05:50:27.098Z,57.55
2022-08-18T05:53:03.316Z,52.67
2022-08-18T05:56:06.665Z,55.65
2022-08-18T05:58:45.771Z,59.42
2022-08-18T06:01:21.179Z,59.45
2022-08-18T06:03:59.854Z,62.13
2022-08-18T06:06:34.059Z,66.17
2022-08-18T06:09:31.049Z,66.92
2022-08-18T06:12:30.172Z,71.15
2022-08-18T06:15:06.392Z,70.42
2022-08-18T06:17:48.316Z,74.65
2022-08-18T06:20:32.657Z,73.65
2022-08-18T06:23:31.510Z,70.15
2022-08-18T06:26:24.769Z,71.95
2022-08-18T06:29:17.928Z,69.77
2022-08-18T06:31:52.946Z,63.50
2022-08-18T06:34:34.049Z,54.63
2022-08-18T06:37:21.279Z,50.08
2022-08-18T06:39:54.136Z,54.33
2022-08-18T06:42:29.855Z,51.08
2022-08-18T06:45:08.406Z,48.08
2022-08-18T06:48:03.477Z,49.73
2022-08-18T06:53:25.927Z,43.05
2022-08-18T06:55:49.651Z,40.28
2022-08-18T06:58:24.860Z,30.45
2022-08-18T07:01:08.142Z,26.48
2022-08-18T07:03:46.704Z,25.70
2022-08-18T07:06:25.602Z,19.80
2022-08-18T07:09:17.447Z,18.42
2022-08-18T07:12:11.014Z,18.15
2022-08-18T07:14:49.755Z,17.30
2022-08-18T07:17:42.318Z,16.73
2022-08-18T07:20:10.641Z,15.35
2022-08-18T07:23:00.718Z,12.70
2022-08-18T07:25:45.064Z,13.38
2022-08-18T07:28:37.199Z,11.65
2022-08-18T07:31:19.171Z,12.00
2022-08-18T07:33:56.073Z,13.00
2022-08-18T07:36:30.988Z,12.20
2022-08-18T07:39:09.085Z,11.90
2022-08-18T07:41:50.607Z,11.93
2022-08-18T07:44:43.472Z,10.75
2022-08-18T07:47:21.403Z,9.00
2022-08-18T07:50:16.921Z,9.73
2022-08-18T07:52:43.950Z,8.53
2022-08-18T07:55:30.198Z,8.60
2022-08-18T07:58:25.964Z,7.97
2022-08-18T08:01:01.832Z,7.20
2022-08-18T08:03:37.819Z,6.70
2022-08-18T08:06:31.080Z,6.80
2022-08-18T08:09:15.554Z,4.85
2022-08-18T08:12:23.877Z,4.95
2022-08-18T08:14:59.658Z,5.35
2022-08-18T08:17:36.645Z,6.22
2022-08-18T08:20:35.889Z,4.45
2022-08-18T08:23:18.001Z,5.15
2022-08-18T08:25:59.029Z,4.72
2022-08-18T08:28:40.636Z,4.25
2022-08-18T08:31:36.342Z,3.00
2022-08-18T08:34:05.305Z,4.40
2022-08-18T08:36:37.386Z,3.55
2022-08-18T08:39:12.446Z,3.52
2022-08-18T08:42:31.596Z,4.40
2022-08-18T08:44:53.380Z,3.20
2022-08-18T08:47:23.375Z,3.10
2022-08-18T08:50:00.653Z,3.17
2022-08-18T08:52:57.240Z,2.35
2022-08-18T08:55:32.549Z,3.10
2022-08-18T08:58:23.216Z,2.77
2022-08-18T09:00:58.184Z,2.77
2022-08-18T09:03:39.152Z,2.25
2022-08-18T09:06:14.169Z,2.30
2022-08-18T09:09:10.325Z,2.58
2022-08-18T09:11:51.908Z,2.30
2022-08-18T09:14:46.924Z,2.72
2022-08-18T09:17:34.197Z,2.85
2022-08-18T09:20:29.191Z,2.40
2022-08-18T09:23:07.227Z,2.90
2022-08-18T09:25:45.422Z,3.33
2022-08-18T09:28:24.847Z,3.05
2022-08-18T09:31:09.258Z,3.00
2022-08-18T09:33:45.807Z,3.62
2022-08-18T09:36:54.147Z,3.17
2022-08-18T09:39:56.525Z,2.60
2022-08-18T09:45:35.597Z,2.90
2022-08-18T09:51:20.869Z,3.10
2022-08-18T09:53:58.061Z,3.20
2022-08-18T09:56:55.794Z,2.98
2022-08-18T09:59:49.139Z,2.30
2022-08-18T10:02:32.248Z,3.08
2022-08-18T10:05:22.605Z,2.95
2022-08-18T10:08:09.929Z,2.60
2022-08-18T10:11:01.371Z,3.55
2022-08-18T10:13:51.017Z,2.92
2022-08-18T10:16:46.191Z,3.57
2022-08-18T10:19:09.379Z,3.00
2022-08-18T10:21:59.443Z,2.90
2022-08-18T10:24:46.427Z,2.70
2022-08-18T10:27:36.917Z,2.95
2022-08-18T10:30:12.265Z,2.70
2022-08-18T10:32:54.138Z,2.90
2022-08-18T10:35:38.752Z,3.77
2022-08-18T10:38:18.375Z,3.00
2022-08-18T10:41:10.052Z,2.60
2022-08-18T10:43:57.645Z,3.00
2022-08-18T10:46:26.649Z,3.05
2022-08-18T10:49:04.446Z,2.65
2022-08-18T10:51:57.850Z,2.50
2022-08-18T10:54:51.989Z,4.28
2022-08-18T10:57:21.740Z,2.52
2022-08-18T11:00:07.492Z,2.20
2022-08-18T11:03:13.874Z,3.02
2022-08-18T11:05:33.362Z,2.40
2022-08-18T11:08:15.983Z,2.77
2022-08-18T11:11:32.858Z,2.50
2022-08-18T11:13:39.911Z,2.52
2022-08-18T11:16:24.758Z,2.72
2022-08-18T11:19:06.387Z,2.40
2022-08-18T11:21:43.468Z,2.12
2022-08-18T11:24:25.002Z,2.47
2022-08-18T11:27:03.240Z,3.22
2022-08-18T11:29:38.184Z,3.10
2022-08-18T11:32:31.224Z,2.52
2022-08-18T11:35:10.915Z,2.50
2022-08-18T11:37:53.255Z,2.20
2022-08-18T11:46:19.162Z,2.35
2022-08-18T11:48:54.300Z,1.80
2022-08-18T11:54:16.079Z,1.95
2022-08-18T11:56:48.661Z,2.80
2022-08-18T11:59:53.063Z,2.00
2022-08-18T12:02:08.891Z,1.90
2022-08-18T12:04:43.880Z,1.92
2022-08-18T12:07:28.240Z,2.10
2022-08-18T12:10:26.118Z,1.92
2022-08-18T12:13:03.409Z,2.50
2022-08-18T12:18:11.234Z,2.70
2022-08-18T12:20:45.557Z,2.08
2022-08-18T12:23:19.400Z,2.05
2022-08-18T12:25:53.512Z,1.35
2022-08-18T12:28:28.431Z,2.10
2022-08-18T12:31:02.154Z,2.02
2022-08-18T12:33:48.332Z,1.90
2022-08-18T12:36:11.199Z,3.52
2022-08-18T12:38:52.281Z,1.87
2022-08-18T12:41:23.916Z,1.90
2022-08-18T12:43:58.488Z,1.72
2022-08-18T12:46:31.717Z,1.90
2022-08-18T12:49:06.496Z,1.85
2022-08-18T12:51:39.568Z,1.75
2022-08-18T12:54:12.544Z,2.07
2022-08-18T12:56:48.632Z,2.67
2022-08-18T12:59:21.881Z,1.80
2022-08-18T13:01:58.808Z,2.30
2022-08-18T13:04:30.935Z,2.20
2022-08-18T13:07:05.955Z,2.35
2022-08-18T13:09:47.971Z,2.67
2022-08-18T13:12:16.155Z,2.08
2022-08-18T13:14:51.129Z,2.50
2022-08-18T13:17:30.573Z,2.02
2022-08-18T13:19:58.267Z,2.25
2022-08-18T13:22:32.172Z,2.62
2022-08-18T13:25:07.452Z,2.20
2022-08-18T13:27:45.107Z,2.00
2022-08-18T13:30:30.131Z,2.40
2022-08-18T13:32:59.007Z,1.80
2022-08-18T13:35:30.175Z,2.33
2022-08-18T13:38:03.203Z,2.42
2022-08-18T13:40:35.411Z,1.65
2022-08-18T13:43:09.212Z,2.07
2022-08-18T13:45:44.006Z,1.80
2022-08-18T13:48:17.311Z,2.20
2022-08-18T13:50:52.855Z,2.30
2022-08-18T13:53:27.273Z,2.15
2022-08-18T13:55:59.645Z,2.52
2022-08-18T13:58:32.625Z,1.77
2022-08-18T14:01:42.039Z,1.97
2022-08-18T14:03:47.221Z,3.40
2022-08-18T14:06:22.887Z,3.02
2022-08-18T14:08:55.985Z,1.98
2022-08-18T14:11:32.871Z,1.70
2022-08-18T14:14:06.417Z,2.47
2022-08-18T14:16:42.394Z,2.02
2022-08-18T14:19:32.990Z,1.80
2022-08-18T14:22:25.417Z,1.85
2022-08-18T14:25:15.337Z,2.55
2022-08-18T14:27:56.976Z,2.70
2022-08-18T14:30:23.690Z,2.27
2022-08-18T14:32:58.186Z,3.00
2022-08-18T14:36:04.722Z,4.70
2022-08-18T14:38:07.319Z,4.25
2022-08-18T14:40:43.826Z,4.37
2022-08-18T14:43:21.549Z,4.30
2022-08-18T14:45:58.046Z,3.47
2022-08-18T14:48:30.197Z,3.70
2022-08-18T14:53:38.129Z,3.47
2022-08-18T14:56:12.505Z,2.90
2022-08-18T14:58:46.102Z,3.00
2022-08-18T15:01:20.347Z,3.25
2022-08-18T15:03:55.149Z,3.90
2022-08-18T15:06:27.461Z,3.87
2022-08-18T15:08:59.562Z,3.25
2022-08-18T15:11:31.935Z,3.25
2022-08-18T15:14:05.719Z,3.90
2022-08-18T15:16:38.683Z,3.65
2022-08-18T15:19:58.854Z,3.80
2022-08-18T15:22:03.687Z,3.25
2022-08-18T15:24:55.125Z,2.92
2022-08-18T15:27:42.328Z,3.30
2022-08-18T15:30:19.372Z,4.05
2022-08-18T15:32:52.065Z,3.85
2022-08-18T15:35:24.772Z,3.85
2022-08-18T15:37:57.607Z,6.17
2022-08-18T15:40:35.794Z,3.30
2022-08-18T15:43:10.067Z,3.85
2022-08-18T15:45:51.003Z,3.67
2022-08-18T15:48:23.669Z,4.60
2022-08-18T15:50:56.900Z,4.22
2022-08-18T15:53:30.240Z,4.37
2022-08-18T15:56:04.246Z,4.12
2022-08-18T15:58:37.753Z,3.53
2022-08-18T16:01:29.849Z,3.83
2022-08-18T16:03:48.922Z,3.70
2022-08-18T16:06:27.558Z,3.35
2022-08-18T16:08:58.640Z,3.20
2022-08-18T16:11:31.456Z,3.95
2022-08-18T16:14:03.890Z,4.08
2022-08-18T16:16:36.720Z,3.65
2022-08-18T16:19:10.466Z,2.98
2022-08-18T16:21:42.723Z,3.20
2022-08-18T16:24:18.257Z,3.25
2022-08-18T16:26:52.111Z,3.42
2022-08-18T16:29:24.667Z,3.10
2022-08-18T16:31:57.347Z,3.92
2022-08-18T16:34:31.021Z,3.10
2022-08-18T16:37:03.563Z,3.47
2022-08-18T16:39:36.735Z,3.40
2022-08-18T16:42:09.150Z,3.22
2022-08-18T16:44:41.339Z,2.85
2022-08-18T16:47:14.386Z,2.62
2022-08-18T16:49:50.911Z,3.27
2022-08-18T16:52:23.760Z,4.03
2022-08-18T16:54:57.531Z,3.17
2022-08-18T16:57:53.743Z,3.62
2022-08-18T17:00:39.623Z,4.78
2022-08-18T17:03:33.250Z,3.25
2022-08-18T17:06:11.974Z,3.00
2022-08-18T17:08:44.985Z,3.05
2022-08-18T17:11:20.354Z,2.95
2022-08-18T17:13:54.403Z,3.20
2022-08-18T17:16:29.811Z,2.98
2022-08-18T17:19:03.772Z,4.90
2022-08-18T17:21:37.757Z,3.50
2022-08-18T17:24:11.661Z,4.30
2022-08-18T17:27:00.328Z,3.85
2022-08-18T17:29:37.474Z,3.35
2022-08-18T17:32:13.009Z,3.30
2022-08-18T17:34:49.759Z,4.37
2022-08-18T17:37:25.500Z,3.20
2022-08-18T17:40:04.353Z,4.05
2022-08-18T17:42:40.147Z,3.72
2022-08-18T17:45:21.492Z,3.70
2022-08-18T17:47:59.749Z,3.83
2022-08-18T17:50:55.681Z,3.58
2022-08-18T17:53:29.905Z,3.90
2022-08-18T17:56:20.579Z,3.95
2022-08-18T17:58:58.565Z,3.87
2022-08-18T18:01:32.193Z,2.98
2022-08-18T18:04:07.878Z,3.70
2022-08-18T18:06:43.492Z,3.10
2022-08-18T18:09:26.307Z,3.65
2022-08-18T18:12:00.504Z,3.70
2022-08-18T18:14:41.689Z,3.87
2022-08-18T18:17:28.907Z,4.58
2022-08-18T18:20:22.076Z,4.55
2022-08-18T18:22:54.751Z,3.42
2022-08-18T18:25:34.824Z,3.10
2022-08-18T18:28:07.523Z,3.45
2022-08-18T18:30:39.675Z,3.40
2022-08-18T18:33:18.402Z,3.25
2022-08-18T18:36:00.843Z,3.10
2022-08-18T18:38:39.091Z,3.47
2022-08-18T18:41:17.175Z,3.95
2022-08-18T18:43:52.189Z,3.35
2022-08-18T18:46:36.454Z,3.30
2022-08-18T18:49:21.860Z,3.72
2022-08-18T18:51:56.843Z,3.40
2022-08-18T18:54:52.969Z,3.95
2022-08-18T18:57:32.432Z,3.22
2022-08-18T19:00:13.457Z,3.27
2022-08-18T19:02:52.096Z,4.17
2022-08-18T19:05:32.541Z,3.85
2022-08-18T19:08:27.704Z,3.15
2022-08-18T19:11:02.841Z,3.62
2022-08-18T19:13:37.897Z,4.37
2022-08-18T19:16:23.894Z,4.53
2022-08-18T19:19:35.978Z,4.95
2022-08-18T19:22:03.774Z,5.10
2022-08-18T19:24:24.149Z,4.87
2022-08-18T19:26:58.920Z,5.50
2022-08-18T19:29:34.110Z,4.83
2022-08-18T19:32:16.735Z,4.67
2022-08-18T19:34:52.484Z,4.90
2022-08-18T19:37:32.713Z,4.85
2022-08-18T19:40:10.864Z,4.47
2022-08-18T19:42:49.037Z,4.72
2022-08-18T19:45:35.999Z,4.22
2022-08-18T19:48:18.392Z,4.58
2022-08-18T19:50:56.019Z,4.50
2022-08-18T19:53:52.291Z,4.60
2022-08-18T19:56:24.079Z,3.85
2022-08-18T19:59:18.676Z,3.52
2022-08-18T20:01:41.861Z,4.62
2022-08-18T20:04:39.720Z,4.60
2022-08-18T20:07:20.795Z,3.90
2022-08-18T20:10:28.810Z,4.25
2022-08-18T20:13:26.220Z,4.30
2022-08-18T20:16:11.818Z,4.17
2022-08-18T20:18:46.383Z,5.10
2022-08-18T20:21:21.349Z,4.70
2022-08-18T20:24:08.838Z,4.62
2022-08-18T20:26:44.313Z,3.90
2022-08-18T20:29:19.212Z,4.37
2022-08-18T20:32:00.461Z,4.12
2022-08-18T20:34:35.669Z,2.98
2022-08-18T20:37:10.524Z,3.75
2022-08-18T20:42:27.006Z,3.35
2022-08-18T20:45:03.547Z,3.92
2022-08-18T20:47:53.688Z,3.67
2022-08-18T20:50:50.417Z,3.58
2022-08-18T20:53:41.733Z,4.03
2022-08-18T20:56:32.403Z,3.77
2022-08-18T20:59:10.127Z,3.35
2022-08-18T21:01:42.312Z,4.10
2022-08-18T21:04:14.529Z,3.83
2022-08-18T21:06:46.811Z,4.05
2022-08-18T21:09:19.693Z,3.83
2022-08-18T21:11:52.571Z,4.10
2022-08-18T21:14:31.886Z,3.50
2022-08-18T21:17:08.991Z,3.33
2022-08-18T21:19:43.514Z,3.30
2022-08-18T21:24:49.155Z,3.17
2022-08-18T21:27:37.644Z,3.25
2022-08-18T21:30:21.973Z,3.50
2022-08-18T21:32:55.266Z,3.35
2022-08-18T21:35:38.208Z,3.02
2022-08-18T21:38:12.565Z,3.20
2022-08-18T21:40:50.351Z,3.12
2022-08-18T21:43:48.856Z,3.33
2022-08-18T21:46:29.977Z,3.12
2022-08-18T21:49:04.748Z,2.52
2022-08-18T21:51:49.517Z,3.52
2022-08-18T21:54:28.098Z,3.40
2022-08-18T21:57:22.715Z,3.05
2022-08-18T22:00:23.066Z,4.20
2022-08-18T22:03:13.345Z,3.17
2022-08-18T22:06:03.587Z,3.40
2022-08-18T22:08:38.760Z,3.58
2022-08-18T22:11:52.009Z,3.67
2022-08-18T22:14:35.797Z,3.90
2022-08-18T22:17:25.640Z,4.10
2022-08-18T22:19:59.250Z,3.50
2022-08-18T22:22:51.051Z,3.55
2022-08-18T22:25:24.372Z,3.83
2022-08-18T22:27:57.103Z,4.00
2022-08-18T22:30:29.358Z,3.85
2022-08-18T22:33:02.201Z,3.90
2022-08-18T22:35:34.205Z,3.70
2022-08-18T22:38:06.445Z,3.77
2022-08-18T22:40:38.596Z,3.62
2022-08-18T22:43:10.728Z,3.52
2022-08-18T22:45:42.836Z,3.67
2022-08-18T22:48:16.328Z,2.90
2022-08-18T22:50:51.170Z,2.77
2022-08-18T22:53:22.345Z,2.60
2022-08-18T22:55:54.454Z,3.37
2022-08-18T22:58:29.496Z,3.30
2022-08-18T23:01:05.692Z,3.75
2022-08-18T23:03:41.723Z,3.22
2022-08-18T23:06:10.766Z,2.50
2022-08-18T23:08:54.689Z,2.80
2022-08-18T23:11:16.937Z,2.90
2022-08-18T23:13:49.267Z,3.05
2022-08-18T23:16:30.567Z,3.20
2022-08-18T23:18:56.060Z,3.22
2022-08-18T23:21:34.245Z,2.80
2022-08-18T23:24:02.087Z,3.22
2022-08-18T23:26:37.344Z,2.58
2022-08-18T23:29:18.508Z,2.92
2022-08-18T23:31:52.651Z,3.00
2022-08-18T23:34:27.305Z,2.80
2022-08-18T23:37:01.580Z,2.83
2022-08-18T23:39:35.732Z,2.87
2022-08-18T23:42:09.960Z,3.12
2022-08-18T23:44:42.401Z,2.58
2022-08-18T23:47:14.751Z,2.60
2022-08-18T23:49:47.045Z,2.90
2022-08-18T23:52:19.155Z,3.00
2022-08-18T23:54:51.167Z,3.45
2022-08-18T23:57:23.340Z,4.08
2022-08-18T23:59:56.840Z,4.22
